TimeCDT,TemperatureF,Dew PointF,Humidity,Sea Level PressureIn,VisibilityMPH,Wind Direction,Wind SpeedMPH,Gust SpeedMPH,PrecipitationIn,Events,Conditions,WindDirDegrees,DateUTC
12:10 AM,69.8,69.8,100,29.84,10.0,ESE,9.2,-,N/A,,Overcast,110,2013-09-09 05:10:00
12:25 AM,68.0,68.0,100,29.82,10.0,ESE,11.5,-,N/A,,Overcast,110,2013-09-09 05:25:00
12:50 AM,69.8,69.8,100,29.81,10.0,SE,12.7,18.4,N/A,,Overcast,130,2013-09-09 05:50:00
1:05 AM,68.0,68.0,100,29.80,10.0,ESE,15.0,19.6,N/A,,Overcast,120,2013-09-09 06:05:00
1:30 AM,69.8,69.8,100,29.78,10.0,SE,15.0,23.0,N/A,,Overcast,130,2013-09-09 06:30:00
1:50 AM,69.8,69.8,100,29.77,10.0,SE,17.3,21.9,N/A,,Overcast,130,2013-09-09 06:50:00
2:05 AM,68.0,68.0,100,29.77,10.0,SE,10.4,18.4,N/A,,Overcast,130,2013-09-09 07:05:00
2:25 AM,68.0,68.0,100,29.75,10.0,SE,16.1,21.9,N/A,,Scattered Clouds,130,2013-09-09 07:25:00
2:45 AM,68.0,68.0,100,29.75,10.0,SE,13.8,19.6,N/A,Thunderstorm,Mostly Cloudy,140,2013-09-09 07:45:00
3:05 AM,68.0,68.0,100,29.74,10.0,SE,15.0,18.4,N/A,,Overcast,140,2013-09-09 08:05:00
3:25 AM,68.0,68.0,100,29.74,10.0,SSE,11.5,20.7,N/A,,Overcast,160,2013-09-09 08:25:00
3:50 AM,68.0,68.0,100,29.73,10.0,SSE,12.7,21.9,N/A,,Mostly Cloudy,160,2013-09-09 08:50:00
4:10 AM,68.0,68.0,100,29.75,10.0,South,8.1,-,N/A,,Overcast,170,2013-09-09 09:10:00
4:25 AM,68.0,68.0,100,29.76,8.0,South,10.4,-,N/A,,Overcast,180,2013-09-09 09:25:00
4:50 AM,68.0,68.0,100,29.76,5.0,South,8.1,-,N/A,,Mostly Cloudy,170,2013-09-09 09:50:00
5:05 AM,68.0,68.0,100,29.75,5.0,South,6.9,-,N/A,,Scattered Clouds,170,2013-09-09 10:05:00
5:30 AM,68.0,68.0,100,29.75,3.0,SE,6.9,-,N/A,,Mostly Cloudy,140,2013-09-09 10:30:00
5:45 AM,68.0,68.0,100,29.74,4.0,SSE,5.8,-,N/A,,Mostly Cloudy,150,2013-09-09 10:45:00
6:10 AM,66.2,66.2,100,29.74,2.0,SE,4.6,-,N/A,,Mostly Cloudy,130,2013-09-09 11:10:00
6:25 AM,66.2,66.2,100,29.74,2.0,ESE,3.5,-,N/A,,Overcast,120,2013-09-09 11:25:00
6:50 AM,64.4,64.4,100,29.73,1.2,SE,5.8,-,N/A,,Mostly Cloudy,140,2013-09-09 11:50:00
7:05 AM,66.2,66.2,100,29.73,0.8,SSE,5.8,-,N/A,,Mostly Cloudy,150,2013-09-09 12:05:00
7:25 AM,66.2,66.2,100,29.72,4.0,SSE,11.5,17.3,N/A,,Clear,160,2013-09-09 12:25:00
7:50 AM,68.0,68.0,100,29.72,5.0,South,9.2,-,N/A,,Clear,180,2013-09-09 12:50:00
8:05 AM,68.0,68.0,100,29.72,8.0,South,11.5,-,N/A,,Clear,180,2013-09-09 13:05:00
8:30 AM,68.0,68.0,100,29.71,10.0,South,11.5,-,N/A,,Clear,180,2013-09-09 13:30:00
8:45 AM,71.6,71.6,100,29.71,10.0,South,10.4,-,N/A,,Clear,180,2013-09-09 13:45:00
9:10 AM,75.2,73.4,94,29.71,10.0,SSW,12.7,-,N/A,,Clear,200,2013-09-09 14:10:00
9:25 AM,77.0,71.6,83,29.71,10.0,SSW,11.5,-,N/A,,Clear,200,2013-09-09 14:25:00
9:50 AM,80.6,64.4,58,29.72,10.0,SW,13.8,19.6,N/A,,Clear,220,2013-09-09 14:50:00
10:05 AM,82.4,64.4,54,29.71,10.0,SW,12.7,19.6,N/A,,Clear,230,2013-09-09 15:05:00
10:30 AM,82.4,62.6,51,29.71,10.0,WSW,16.1,20.7,N/A,,Clear,250,2013-09-09 15:30:00
10:45 AM,82.4,64.4,54,29.71,10.0,WSW,15.0,20.7,N/A,,Clear,240,2013-09-09 15:45:00
11:10 AM,84.2,62.6,48,29.71,10.0,WSW,12.7,19.6,N/A,,Clear,250,2013-09-09 16:10:00
11:25 AM,84.2,64.4,51,29.72,10.0,West,16.1,-,N/A,,Clear,260,2013-09-09 16:25:00
11:45 AM,84.2,66.2,55,29.72,10.0,WSW,10.4,-,N/A,,Clear,250,2013-09-09 16:45:00
12:05 PM,84.2,68.0,58,29.72,10.0,WSW,9.2,-,N/A,,Clear,250,2013-09-09 17:05:00
12:25 PM,86.0,68.0,55,29.72,10.0,SW,8.1,-,N/A,,Clear,230,2013-09-09 17:25:00
12:50 PM,86.0,68.0,55,29.72,10.0,West,8.1,-,N/A,,Clear,260,2013-09-09 17:50:00
1:05 PM,87.8,68.0,52,29.72,10.0,WSW,12.7,18.4,N/A,,Clear,250,2013-09-09 18:05:00
1:30 PM,87.8,68.0,52,29.72,10.0,WSW,11.5,17.3,N/A,,Clear,250,2013-09-09 18:30:00
1:45 PM,87.8,68.0,52,29.72,10.0,WSW,13.8,19.6,N/A,,Clear,240,2013-09-09 18:45:00
2:10 PM,87.8,68.0,52,29.72,10.0,West,12.7,18.4,N/A,,Clear,260,2013-09-09 19:10:00
2:25 PM,89.6,66.2,46,29.72,10.0,West,10.4,19.6,N/A,,Clear,270,2013-09-09 19:25:00
2:50 PM,89.6,64.4,43,29.72,10.0,West,15.0,20.7,N/A,,Clear,260,2013-09-09 19:50:00
3:05 PM,91.4,62.6,38,29.72,10.0,West,13.8,21.9,N/A,,Clear,270,2013-09-09 20:05:00
3:30 PM,89.6,64.4,43,29.73,10.0,West,15.0,19.6,N/A,,Clear,280,2013-09-09 20:30:00
3:50 PM,89.6,62.6,40,29.73,10.0,WNW,13.8,18.4,N/A,,Clear,290,2013-09-09 20:50:00
4:10 PM,87.8,66.2,49,29.74,10.0,WNW,11.5,19.6,N/A,,Partly Cloudy,300,2013-09-09 21:10:00
4:30 PM,86.0,66.2,51,29.75,10.0,NW,17.3,23.0,N/A,,Clear,320,2013-09-09 21:30:00
4:50 PM,84.2,66.2,55,29.76,10.0,NW,16.1,23.0,N/A,,Clear,310,2013-09-09 21:50:00
5:05 PM,84.2,66.2,55,29.77,10.0,NW,16.1,23.0,N/A,,Clear,320,2013-09-09 22:05:00
5:25 PM,84.2,64.4,51,29.77,10.0,NW,15.0,21.9,N/A,,Clear,310,2013-09-09 22:25:00
5:50 PM,82.4,66.2,58,29.78,10.0,NW,15.0,-,N/A,,Clear,320,2013-09-09 22:50:00
6:05 PM,80.6,66.2,61,29.79,10.0,NW,16.1,-,N/A,,Clear,310,2013-09-09 23:05:00
6:30 PM,80.6,66.2,61,29.80,10.0,NW,11.5,19.6,N/A,,Clear,320,2013-09-09 23:30:00
6:45 PM,77.0,66.2,69,29.80,10.0,NW,11.5,-,N/A,,Clear,320,2013-09-09 23:45:00
7:10 PM,77.0,64.4,65,29.81,10.0,NW,9.2,-,N/A,,Clear,320,2013-09-10 00:10:00
7:25 PM,75.2,64.4,69,29.81,10.0,NW,9.2,-,N/A,,Clear,320,2013-09-10 00:25:00
7:50 PM,73.4,66.2,78,29.82,10.0,NNW,9.2,-,N/A,,Clear,330,2013-09-10 00:50:00
8:05 PM,73.4,68.0,83,29.82,10.0,NNW,11.5,-,N/A,,Clear,330,2013-09-10 01:05:00
8:30 PM,73.4,68.0,83,29.83,10.0,NNW,9.2,-,N/A,,Partly Cloudy,330,2013-09-10 01:30:00
8:45 PM,73.4,66.2,78,29.84,10.0,NW,8.1,-,N/A,,Mostly Cloudy,320,2013-09-10 01:45:00
9:10 PM,73.4,66.2,78,29.85,10.0,NNW,8.1,-,N/A,,Overcast,330,2013-09-10 02:10:00
9:25 PM,71.6,68.0,88,29.85,10.0,NNW,9.2,-,N/A,,Mostly Cloudy,330,2013-09-10 02:25:00
9:45 PM,71.6,68.0,88,29.85,10.0,NNW,9.2,-,N/A,,Scattered Clouds,340,2013-09-10 02:45:00
10:05 PM,69.8,68.0,94,29.86,10.0,NNW,5.8,-,N/A,,Partly Cloudy,340,2013-09-10 03:05:00
10:25 PM,68.0,68.0,100,29.88,10.0,NW,6.9,-,N/A,Thunderstorm,Mostly Cloudy,320,2013-09-10 03:25:00
10:50 PM,68.0,68.0,100,29.88,10.0,Calm,Calm,-,N/A,,Mostly Cloudy,0,2013-09-10 03:50:00
11:05 PM,68.0,68.0,100,29.88,10.0,Calm,Calm,-,N/A,,Mostly Cloudy,0,2013-09-10 04:05:00
11:30 PM,68.0,68.0,100,29.89,10.0,WNW,3.5,-,N/A,,Overcast,300,2013-09-10 04:30:00
11:45 PM,68.0,68.0,100,29.88,10.0,NNW,5.8,-,N/A,,Overcast,340,2013-09-10 04:45:00